Time;durP1;ratioP1;P1;durP2;ratioP2;P2;SDS_P1;SDS_P2;PMS_P1;PMS_P2;Temp;Humidity;BMP_temperature;BMP_pressure;BME280_temperature;BME280_humidity;BME280_pressure;Samples;Min_cycle;Max_cycle;Signal;HPM_P1;HPM_P2
2024/02/09 00:00:57;;;;;;;6.60;5.65;;;2.90;99.90;;;;;;5079612;28;20194;-43
2024/02/09 00:03:26;;;;;;;6.28;5.18;;;2.90;99.90;;;;;;5062087;28;20687;-50
2024/02/09 00:05:53;;;;;;;6.40;5.20;;;2.90;99.90;;;;;;5063686;28;20193;-44
2024/02/09 00:08:20;;;;;;;5.30;4.50;;;2.90;99.90;;;;;;5079232;28;20202;-49
2024/02/09 00:10:50;;;;;;;6.05;4.75;;;2.90;99.90;;;;;;5063685;28;20939;-41
2024/02/09 00:13:17;;;;;;;6.50;4.70;;;2.90;99.90;;;;;;5063481;28;20190;-40
2024/02/09 00:15:47;;;;;;;6.40;5.18;;;2.90;99.90;;;;;;5062126;28;20701;-51
2024/02/09 00:18:15;;;;;;;6.40;5.20;;;2.90;99.90;;;;;;5063191;28;20610;-44
2024/02/09 00:20:42;;;;;;;6.07;5.03;;;2.90;99.90;;;;;;5063423;28;20199;-44
2024/02/09 00:23:08;;;;;;;5.60;4.60;;;2.90;99.90;;;;;;5062126;28;20327;-44
2024/02/09 00:25:34;;;;;;;5.35;4.60;;;3.00;99.90;;;;;;5063673;28;20235;-45
2024/02/09 00:28:00;;;;;;;6.22;5.00;;;2.90;99.90;;;;;;5063026;28;20195;-44
2024/02/09 00:30:26;;;;;;;5.53;4.97;;;2.90;99.90;;;;;;5063045;28;20469;-46
2024/02/09 00:32:51;;;;;;;5.88;5.38;;;2.90;99.90;;;;;;5062809;28;20213;-44
2024/02/09 00:35:24;;;;;;;6.15;4.90;;;2.90;99.90;;;;;;5062950;28;20222;-45
2024/02/09 00:37:55;;;;;;;5.38;4.75;;;2.90;99.90;;;;;;5077800;28;20205;-45
2024/02/09 00:40:24;;;;;;;6.10;5.00;;;2.90;99.90;;;;;;5062612;28;20205;-43
2024/02/09 00:42:53;;;;;;;5.03;4.40;;;2.90;99.90;;;;;;5078106;28;20682;-45
2024/02/09 00:45:19;;;;;;;4.15;3.70;;;3.00;99.90;;;;;;5061470;28;20202;-44
2024/02/09 00:47:47;;;;;;;4.70;4.03;;;3.00;99.90;;;;;;5062996;28;20186;-43
2024/02/09 00:50:17;;;;;;;6.43;4.70;;;3.00;99.90;;;;;;5062671;28;20528;-43
2024/02/09 00:52:48;;;;;;;5.72;4.78;;;3.00;99.90;;;;;;5062598;28;20201;-41
2024/02/09 00:55:15;;;;;;;5.80;5.00;;;2.90;99.90;;;;;;5062144;28;20190;-43
2024/02/09 00:57:45;;;;;;;5.70;5.05;;;3.00;99.90;;;;;;5062227;28;20650;-45
2024/02/09 01:00:12;;;;;;;5.93;4.18;;;3.00;99.90;;;;;;5062887;28;20191;-42
2024/02/09 01:02:39;;;;;;;6.40;4.47;;;3.00;99.90;;;;;;5060953;28;20217;-44
2024/02/09 01:05:06;;;;;;;5.20;4.68;;;3.00;99.90;;;;;;5062718;28;20233;-45
2024/02/09 01:07:33;;;;;;;5.20;4.70;;;3.00;99.90;;;;;;5062497;28;20178;-47
2024/02/09 01:09:59;;;;;;;5.53;4.65;;;3.10;99.90;;;;;;5062334;28;20186;-42
2024/02/09 02:45:27;;;;;;;5.43;4.60;;;3.20;99.90;;;;;;5060068;28;20191;-44
2024/02/09 03:04:20;;;;;;;7.05;4.88;;;3.30;99.90;;;;;;5055972;28;20221;-45
2024/02/09 03:06:46;;;;;;;6.28;5.38;;;3.30;99.90;;;;;;5060514;28;20214;-41
2024/02/09 03:09:12;;;;;;;6.07;5.03;;;3.20;99.90;;;;;;5060514;28;20217;-49
2024/02/09 03:11:38;;;;;;;6.60;5.47;;;3.20;99.90;;;;;;5059362;28;21051;-43
2024/02/09 03:14:05;;;;;;;5.57;4.97;;;3.20;99.90;;;;;;5061072;28;20194;-45
2024/02/09 03:16:31;;;;;;;7.35;5.38;;;3.30;99.90;;;;;;5060424;28;20192;-41
2024/02/09 03:18:57;;;;;;;5.68;5.03;;;3.30;99.90;;;;;;5060073;28;20214;-42
2024/02/09 03:21:27;;;;;;;6.65;5.32;;;3.30;99.90;;;;;;5060506;28;20225;-44
2024/02/09 03:23:56;;;;;;;6.07;5.40;;;3.30;99.90;;;;;;5060643;28;20225;-44
2024/02/09 03:26:23;;;;;;;7.13;5.95;;;3.30;99.90;;;;;;5059912;28;20191;-42
2024/02/09 03:28:52;;;;;;;5.50;4.90;;;3.30;99.90;;;;;;5060499;28;20194;-38
2024/02/09 03:31:18;;;;;;;6.35;5.40;;;3.30;99.90;;;;;;5059770;28;20635;-49
2024/02/09 03:33:44;;;;;;;6.70;5.50;;;3.30;99.90;;;;;;5060774;28;20727;-49
2024/02/09 03:36:19;;;;;;;6.68;5.47;;;3.30;99.90;;;;;;5059435;28;20892;-46
2024/02/09 03:38:45;;;;;;;6.72;5.65;;;3.30;99.90;;;;;;5060136;28;20767;-45
2024/02/09 03:41:12;;;;;;;8.02;5.57;;;3.40;99.90;;;;;;5075147;28;20216;-44
2024/02/09 03:43:37;;;;;;;6.25;4.57;;;3.40;99.90;;;;;;5058962;28;20226;-42
2024/02/09 03:46:03;;;;;;;6.78;5.53;;;3.40;99.90;;;;;;5060434;28;20655;-42
2024/02/09 03:48:29;;;;;;;8.27;5.25;;;3.40;99.90;;;;;;5059951;28;20186;-43
2024/02/09 03:50:55;;;;;;;7.45;5.00;;;3.40;99.90;;;;;;5059105;28;20186;-47
2024/02/09 03:53:20;;;;;;;7.28;5.50;;;3.40;99.90;;;;;;5060000;28;20593;-41
2024/02/09 03:55:46;;;;;;;5.93;5.22;;;3.40;99.90;;;;;;5059392;28;20248;-42
2024/02/09 03:58:12;;;;;;;7.03;5.88;;;3.40;99.90;;;;;;5060033;28;20279;-40
2024/02/09 04:00:37;;;;;;;6.18;5.30;;;3.40;99.90;;;;;;5059929;28;20206;-44
2024/02/09 04:03:03;;;;;;;6.53;5.45;;;3.40;99.90;;;;;;5059998;28;20206;-47
2024/02/09 04:05:31;;;;;;;8.10;5.90;;;3.40;99.90;;;;;;5059924;28;20709;-45
2024/02/09 04:07:57;;;;;;;7.63;5.80;;;3.50;99.90;;;;;;5060153;28;20218;-44
2024/02/09 04:10:22;;;;;;;6.10;5.00;;;3.40;99.90;;;;;;5062075;28;20977;-46
2024/02/09 04:12:48;;;;;;;6.53;5.57;;;3.40;99.90;;;;;;5078715;28;20185;-44
2024/02/09 04:15:14;;;;;;;7.47;5.70;;;3.40;99.90;;;;;;5063301;28;20548;-44
2024/02/09 04:17:40;;;;;;;7.35;6.20;;;3.40;99.90;;;;;;5063678;28;20191;-42
2024/02/09 04:20:11;;;;;;;9.07;5.80;;;3.50;99.90;;;;;;5063414;28;20217;-45
2024/02/09 04:22:37;;;;;;;6.97;5.90;;;3.50;99.90;;;;;;5044968;28;20238;-42
2024/02/09 04:25:03;;;;;;;7.35;5.85;;;3.50;99.90;;;;;;5063329;28;20644;-44
2024/02/09 04:27:29;;;;;;;7.45;5.95;;;3.40;99.90;;;;;;5063405;28;20197;-42
2024/02/09 04:29:55;;;;;;;6.13;5.15;;;3.50;99.90;;;;;;5063951;28;20270;-43
2024/02/09 04:32:21;;;;;;;6.57;5.50;;;3.50;99.90;;;;;;5062207;28;20210;-42
2024/02/09 04:34:46;;;;;;;7.63;6.00;;;3.50;99.90;;;;;;5061904;28;20191;-41
2024/02/09 04:37:12;;;;;;;6.60;5.40;;;3.50;99.90;;;;;;5063334;28;20266;-44
2024/02/09 04:39:38;;;;;;;6.80;5.30;;;3.60;99.90;;;;;;5063293;28;20213;-46
2024/02/09 04:42:04;;;;;;;7.43;5.80;;;3.50;99.90;;;;;;5062896;28;20214;-47
2024/02/09 04:44:31;;;;;;;7.05;5.85;;;3.60;99.90;;;;;;5061508;28;20198;-42
2024/02/09 04:46:57;;;;;;;7.32;5.88;;;3.60;99.90;;;;;;5062601;28;20190;-43
2024/02/09 04:49:23;;;;;;;6.72;5.32;;;3.60;99.90;;;;;;5063194;28;20179;-44
2024/02/09 04:51:48;;;;;;;6.32;5.35;;;3.60;99.90;;;;;;5063380;28;20206;-41
2024/02/09 04:54:14;;;;;;;6.50;5.28;;;3.60;99.90;;;;;;5062478;28;20195;-47
2024/02/09 04:56:40;;;;;;;5.43;4.80;;;3.60;99.90;;;;;;5062367;28;20190;-43
2024/02/09 04:59:07;;;;;;;6.40;5.40;;;3.70;99.90;;;;;;5062665;28;20190;-41
2024/02/09 05:01:38;;;;;;;6.60;4.97;;;3.70;99.90;;;;;;5061473;28;20182;-44
2024/02/09 05:04:12;;;;;;;7.43;5.13;;;3.70;99.90;;;;;;5077940;28;20201;-44
2024/02/09 05:06:38;;;;;;;6.97;5.00;;;3.70;99.90;;;;;;5062828;28;20548;-43
2024/02/09 05:09:06;;;;;;;6.70;5.40;;;3.70;99.90;;;;;;5060431;28;20182;-46
2024/02/09 05:11:34;;;;;;;5.15;4.22;;;3.70;99.90;;;;;;5062414;28;20193;-41
2024/02/09 05:14:00;;;;;;;5.72;4.57;;;3.70;99.90;;;;;;5062864;28;20214;-44
2024/02/09 05:16:29;;;;;;;6.07;4.75;;;3.70;99.90;;;;;;5062255;28;20343;-41
2024/02/09 05:18:55;;;;;;;6.35;5.20;;;3.70;99.90;;;;;;5062595;28;20549;-44
2024/02/09 05:21:20;;;;;;;6.47;5.00;;;3.70;99.90;;;;;;5061743;28;20185;-44
2024/02/09 05:23:46;;;;;;;6.85;5.15;;;3.70;99.90;;;;;;5062308;28;20303;-46
2024/02/09 05:26:13;;;;;;;8.38;5.53;;;3.70;99.90;;;;;;5061204;28;20179;-42
2024/02/09 05:28:43;;;;;;;6.85;5.03;;;3.70;99.90;;;;;;5061751;28;20249;-45
2024/02/09 05:31:13;;;;;;;6.63;5.60;;;3.70;99.90;;;;;;5061864;28;20218;-42
2024/02/09 05:33:39;;;;;;;8.15;5.38;;;3.80;99.90;;;;;;5061690;28;20201;-48
2024/02/09 05:36:06;;;;;;;7.38;6.00;;;3.80;99.90;;;;;;5061376;28;20222;-43
2024/02/09 05:38:32;;;;;;;7.55;5.90;;;3.80;99.90;;;;;;5043684;28;20182;-41
2024/02/09 05:40:58;;;;;;;7.95;5.55;;;3.80;99.90;;;;;;5043204;28;20190;-44
2024/02/09 05:43:24;;;;;;;7.65;6.05;;;3.90;99.90;;;;;;5061878;28;20210;-45
2024/02/09 05:45:50;;;;;;;7.85;5.88;;;3.90;99.90;;;;;;5061804;28;20176;-44
2024/02/09 05:48:16;;;;;;;7.28;6.10;;;3.90;99.90;;;;;;5060943;28;21294;-47
2024/02/09 05:50:41;;;;;;;7.28;5.88;;;3.90;99.90;;;;;;5092132;28;20348;-40
2024/02/09 05:53:08;;;;;;;7.70;6.03;;;3.90;99.90;;;;;;5060471;28;20194;-44
2024/02/09 05:55:40;;;;;;;7.53;6.28;;;3.90;99.90;;;;;;5061234;28;20597;-43
2024/02/09 05:58:06;;;;;;;8.13;5.95;;;3.90;99.90;;;;;;5060538;28;20194;-45
2024/02/09 06:00:32;;;;;;;8.13;6.30;;;3.90;99.90;;;;;;5061682;28;20277;-46
2024/02/09 06:02:58;;;;;;;8.90;7.10;;;3.90;99.90;;;;;;5061291;28;20313;-41
2024/02/09 06:05:24;;;;;;;10.27;7.63;;;3.90;99.90;;;;;;5060547;28;20422;-45
2024/02/09 06:07:50;;;;;;;8.25;6.88;;;4.00;99.90;;;;;;5061062;28;20194;-48
2024/02/09 06:10:15;;;;;;;10.02;7.03;;;4.00;99.90;;;;;;5059569;28;20191;-42
2024/02/09 06:12:43;;;;;;;9.00;6.30;;;4.00;99.90;;;;;;5060977;28;20214;-45
2024/02/09 06:15:10;;;;;;;9.18;6.88;;;4.00;99.90;;;;;;5059272;28;20194;-43
2024/02/09 06:17:40;;;;;;;8.82;6.68;;;4.10;99.90;;;;;;5061255;28;20198;-44
2024/02/09 06:20:08;;;;;;;9.00;6.57;;;4.00;99.90;;;;;;5060685;28;20294;-45
2024/02/09 06:22:35;;;;;;;8.05;6.57;;;4.00;99.90;;;;;;5060270;28;20229;-40
2024/02/09 06:25:01;;;;;;;10.05;7.13;;;4.00;99.90;;;;;;5061380;28;20186;-47
2024/02/09 06:27:27;;;;;;;9.27;7.25;;;4.10;99.90;;;;;;5060536;28;20248;-42
2024/02/09 06:29:54;;;;;;;10.50;7.75;;;4.10;99.90;;;;;;5060935;28;20186;-41
2024/02/09 06:32:23;;;;;;;11.85;7.68;;;4.10;99.90;;;;;;5060644;28;20194;-46
2024/02/09 06:34:52;;;;;;;12.57;8.45;;;4.10;99.90;;;;;;5060646;28;20186;-44
2024/02/09 06:37:19;;;;;;;10.75;7.95;;;4.10;99.90;;;;;;5058838;28;20191;-47
2024/02/09 06:39:47;;;;;;;12.60;8.23;;;4.10;99.90;;;;;;5060641;28;20269;-43
2024/02/09 06:42:13;;;;;;;11.55;8.70;;;4.20;99.90;;;;;;5059202;28;20214;-43
2024/02/09 06:44:42;;;;;;;12.30;9.05;;;4.20;99.90;;;;;;5060533;28;20197;-42
2024/02/09 06:47:12;;;;;;;12.90;8.90;;;4.20;99.90;;;;;;5059325;28;20659;-45
2024/02/09 06:49:43;;;;;;;13.68;9.00;;;4.20;99.90;;;;;;5060700;28;20206;-39
2024/02/09 06:52:09;;;;;;;12.65;9.02;;;4.20;99.90;;;;;;5060625;28;20217;-42
2024/02/09 06:54:34;;;;;;;14.75;9.98;;;4.30;99.90;;;;;;5041204;28;20658;-42
2024/02/09 06:57:00;;;;;;;13.00;8.90;;;4.20;99.90;;;;;;5075330;28;20205;-46
2024/02/09 06:59:27;;;;;;;15.07;11.02;;;4.20;99.90;;;;;;5041629;28;20194;-45
2024/02/09 07:01:53;;;;;;;18.75;11.20;;;4.30;99.90;;;;;;5059542;28;20191;-44
2024/02/09 07:04:19;;;;;;;14.20;10.02;;;4.30;99.90;;;;;;5059155;28;20190;-40
2024/02/09 07:06:48;;;;;;;15.85;10.13;;;4.30;99.90;;;;;;5058852;28;20670;-40
2024/02/09 07:09:18;;;;;;;16.88;10.80;;;4.40;99.90;;;;;;5075096;28;20598;-42
2024/02/09 07:11:47;;;;;;;15.18;10.32;;;4.40;99.90;;;;;;5060306;28;20190;-42
2024/02/09 07:14:17;;;;;;;13.60;9.73;;;4.40;99.90;;;;;;5059594;28;20193;-43
2024/02/09 07:16:46;;;;;;;15.13;10.13;;;4.40;99.90;;;;;;5075186;28;20190;-44
2024/02/09 07:19:12;;;;;;;13.00;9.27;;;4.40;99.90;;;;;;5059450;28;20206;-47
2024/02/09 07:21:42;;;;;;;10.95;8.10;;;4.40;99.90;;;;;;5042334;28;20191;-48
2024/02/09 07:24:08;;;;;;;14.68;9.48;;;4.40;99.90;;;;;;5090906;28;20201;-45
2024/02/09 07:26:35;;;;;;;12.73;9.35;;;4.50;99.90;;;;;;5075941;28;20195;-49
2024/02/09 07:29:01;;;;;;;12.63;9.38;;;4.50;99.90;;;;;;5059981;28;20195;-45
2024/02/09 07:31:27;;;;;;;13.80;9.48;;;4.50;99.90;;;;;;5059854;28;20187;-42
2024/02/09 07:33:54;;;;;;;13.13;9.40;;;4.50;99.90;;;;;;5058457;28;20178;-45
2024/02/09 07:36:21;;;;;;;12.85;9.05;;;4.60;99.90;;;;;;5041111;28;20313;-42
2024/02/09 07:38:47;;;;;;;13.95;9.77;;;4.60;99.90;;;;;;5059967;28;20205;-45
2024/02/09 07:41:19;;;;;;;14.55;10.02;;;4.60;99.90;;;;;;5059777;28;20183;-43
2024/02/09 07:43:46;;;;;;;15.45;10.48;;;4.70;99.90;;;;;;5059042;28;20305;-42
2024/02/09 07:46:15;;;;;;;12.32;9.38;;;4.70;99.90;;;;;;5061863;28;20187;-43
2024/02/09 07:48:43;;;;;;;14.10;9.57;;;4.80;99.90;;;;;;5063024;28;20542;-43
2024/02/09 07:51:09;;;;;;;13.98;9.65;;;4.80;99.90;;;;;;5063798;28;20675;-48
2024/02/09 07:53:35;;;;;;;15.35;10.75;;;4.80;99.90;;;;;;5060728;28;20293;-45
2024/02/09 07:56:02;;;;;;;14.48;10.07;;;4.90;99.90;;;;;;5061935;28;20289;-44
2024/02/09 07:58:28;;;;;;;17.92;11.73;;;4.90;99.90;;;;;;5061273;28;20611;-44
2024/02/09 08:00:54;;;;;;;13.60;9.55;;;4.90;99.90;;;;;;5061891;28;20205;-45
2024/02/09 08:03:20;;;;;;;16.20;10.30;;;5.00;99.90;;;;;;5063222;28;20214;-43
2024/02/09 08:05:49;;;;;;;18.52;11.52;;;5.00;99.90;;;;;;5061550;28;20183;-43
2024/02/09 08:08:15;;;;;;;17.58;11.35;;;5.00;99.90;;;;;;5063171;28;20178;-42
2024/02/09 08:10:41;;;;;;;17.23;11.43;;;5.00;99.90;;;;;;5063286;28;20623;-42
2024/02/09 08:13:10;;;;;;;18.42;11.27;;;5.10;99.90;;;;;;5048424;28;20697;-41
2024/02/09 08:15:36;;;;;;;16.23;11.45;;;5.10;99.90;;;;;;5062851;28;20205;-43
2024/02/09 08:18:01;;;;;;;18.33;12.45;;;5.10;99.90;;;;;;5062696;28;20190;-44
2024/02/09 08:20:27;;;;;;;20.13;13.65;;;5.20;99.90;;;;;;5062750;28;20194;-43
2024/02/09 08:22:53;;;;;;;17.65;12.57;;;5.20;99.90;;;;;;5062736;28;20263;-42
2024/02/09 08:25:19;;;;;;;20.67;12.93;;;5.20;99.90;;;;;;5063034;28;20724;-45
2024/02/09 08:27:46;;;;;;;20.73;12.93;;;5.30;99.90;;;;;;5063017;28;20193;-43
2024/02/09 08:30:12;;;;;;;17.85;12.55;;;5.30;99.90;;;;;;5062189;28;20269;-46
2024/02/09 08:32:39;;;;;;;20.75;13.52;;;5.40;99.90;;;;;;5063073;28;20195;-46
2024/02/09 08:35:06;;;;;;;18.08;12.95;;;5.40;99.90;;;;;;5061894;28;20194;-47
2024/02/09 08:37:32;;;;;;;23.77;13.63;;;5.50;99.90;;;;;;5061797;28;20827;-43
2024/02/09 08:39:59;;;;;;;19.33;13.32;;;5.50;99.90;;;;;;5061205;28;20198;-45
2024/02/09 08:42:26;;;;;;;22.90;14.38;;;5.50;99.90;;;;;;5062987;28;20217;-46
2024/02/09 08:44:52;;;;;;;20.17;13.20;;;5.50;99.90;;;;;;5062806;28;20278;-41
2024/02/09 08:47:18;;;;;;;20.38;13.48;;;5.60;99.90;;;;;;5062405;28;20692;-42
2024/02/09 08:49:44;;;;;;;21.73;14.15;;;5.60;99.90;;;;;;5060303;28;20191;-43
2024/02/09 08:52:12;;;;;;;19.95;13.65;;;5.60;99.90;;;;;;5063029;28;20205;-46
2024/02/09 08:54:38;;;;;;;20.88;13.27;;;5.70;99.90;;;;;;5076280;28;20182;-42
2024/02/09 08:57:04;;;;;;;20.40;13.63;;;5.70;99.90;;;;;;5062469;28;20541;-41
2024/02/09 08:59:30;;;;;;;20.10;12.55;;;5.70;99.90;;;;;;5062922;28;20572;-41
2024/02/09 09:01:56;;;;;;;19.08;13.38;;;5.80;99.90;;;;;;5062218;28;20199;-41
2024/02/09 09:04:22;;;;;;;22.48;14.68;;;5.90;99.90;;;;;;5062805;28;20654;-41
2024/02/09 09:06:48;;;;;;;18.02;13.48;;;5.80;99.90;;;;;;5061233;28;20186;-42
2024/02/09 09:09:15;;;;;;;18.63;13.23;;;5.90;99.90;;;;;;5061882;28;20195;-41
2024/02/09 09:11:42;;;;;;;18.35;13.32;;;6.00;99.90;;;;;;5062329;28;20183;-43
2024/02/09 09:14:11;;;;;;;22.63;14.18;;;6.00;99.90;;;;;;5059401;28;20198;-43
2024/02/09 09:16:40;;;;;;;21.67;14.43;;;6.10;99.90;;;;;;5061571;28;20260;-45
2024/02/09 09:19:08;;;;;;;20.92;14.98;;;6.10;99.90;;;;;;5061553;28;20202;-39
2024/02/09 09:21:37;;;;;;;22.05;14.73;;;6.20;99.90;;;;;;5061077;28;20279;-42
2024/02/09 09:24:08;;;;;;;22.35;15.52;;;6.20;99.90;;;;;;5062116;28;20632;-42
2024/02/09 09:26:34;;;;;;;23.45;15.73;;;6.30;99.90;;;;;;5061833;28;20203;-45
2024/02/09 09:29:00;;;;;;;23.15;15.85;;;6.30;99.90;;;;;;5062116;28;20560;-45
2024/02/09 09:31:27;;;;;;;28.40;16.45;;;6.30;99.90;;;;;;5061534;28;20233;-48
2024/02/09 09:33:53;;;;;;;24.45;16.42;;;6.40;99.90;;;;;;5061499;28;20650;-42
2024/02/09 09:36:20;;;;;;;25.98;17.33;;;6.40;99.90;;;;;;5061025;28;20230;-42
2024/02/09 09:38:46;;;;;;;33.08;20.88;;;6.50;99.90;;;;;;5060718;28;20563;-46
2024/02/09 09:41:12;;;;;;;39.42;25.95;;;6.50;99.90;;;;;;5061620;28;20296;-44
2024/02/09 09:43:39;;;;;;;24.55;16.98;;;6.50;99.90;;;;;;5060758;28;20222;-50
2024/02/09 09:46:08;;;;;;;25.08;17.27;;;6.60;99.90;;;;;;5061108;28;20214;-41
2024/02/09 09:48:35;;;;;;;25.38;17.67;;;6.70;99.90;;;;;;5061103;28;20189;-43
2024/02/09 09:51:03;;;;;;;25.45;16.83;;;6.80;99.90;;;;;;5061654;28;20190;-39
2024/02/09 09:53:42;;;;;;;25.23;16.00;;;6.80;99.90;;;;;;5060919;28;20194;-42
2024/02/09 09:56:08;;;;;;;24.45;16.23;;;6.90;99.90;;;;;;5055990;28;20190;-46
2024/02/09 09:58:35;;;;;;;26.48;16.55;;;7.00;99.90;;;;;;5060937;28;20212;-47
2024/02/09 10:01:07;;;;;;;26.77;16.80;;;7.10;99.90;;;;;;5060705;28;20656;-46
2024/02/09 10:03:36;;;;;;;26.25;16.73;;;7.10;99.90;;;;;;5061298;28;20438;-41
2024/02/09 10:06:02;;;;;;;24.42;16.15;;;7.20;99.90;;;;;;5060678;28;20561;-40
2024/02/09 10:08:30;;;;;;;25.75;16.75;;;7.40;99.90;;;;;;5059699;28;20189;-42
2024/02/09 10:10:56;;;;;;;26.23;16.95;;;7.40;99.90;;;;;;5061259;28;20190;-41
2024/02/09 10:13:23;;;;;;;23.45;16.25;;;7.50;99.90;;;;;;5060329;28;20217;-39
2024/02/09 10:15:51;;;;;;;27.00;17.60;;;7.60;99.90;;;;;;5059562;28;20187;-45
2024/02/09 10:18:18;;;;;;;26.48;17.35;;;7.60;99.90;;;;;;5060642;28;21042;-42
2024/02/09 10:20:47;;;;;;;24.70;16.95;;;7.70;99.90;;;;;;5060355;28;20203;-43
2024/02/09 10:23:16;;;;;;;28.55;17.55;;;7.70;99.90;;;;;;5059956;28;20232;-46
2024/02/09 10:25:43;;;;;;;28.52;17.65;;;7.80;99.90;;;;;;5061322;28;20277;-42
2024/02/09 10:28:13;;;;;;;27.73;17.88;;;7.80;99.90;;;;;;5060898;28;20320;-39
2024/02/09 10:30:39;;;;;;;29.02;18.67;;;7.80;99.90;;;;;;5060230;28;20194;-40
2024/02/09 10:33:06;;;;;;;26.58;18.42;;;7.90;99.90;;;;;;5060398;28;20584;-40
2024/02/09 10:35:34;;;;;;;38.00;24.40;;;8.00;99.90;;;;;;5060158;28;20841;-44
2024/02/09 10:38:00;;;;;;;29.92;19.75;;;8.10;99.90;;;;;;5059969;28;20194;-38
2024/02/09 10:40:26;;;;;;;37.08;19.33;;;8.10;99.90;;;;;;5060993;28;20324;-47
2024/02/09 10:42:53;;;;;;;34.80;22.13;;;8.20;99.90;;;;;;5058766;28;20341;-45
2024/02/09 10:45:20;;;;;;;35.17;22.35;;;8.30;99.90;;;;;;5060367;28;20183;-39
2024/02/09 10:47:54;;;;;;;36.38;22.08;;;8.40;99.90;;;;;;5060152;28;20191;-41
2024/02/09 10:50:20;;;;;;;37.58;23.70;;;8.50;99.90;;;;;;5059299;28;20186;-41
2024/02/09 10:52:50;;;;;;;35.55;23.15;;;8.50;99.90;;;;;;5058457;28;20208;-45
2024/02/09 10:55:26;;;;;;;42.67;25.25;;;8.60;99.90;;;;;;5060239;28;20275;-42
2024/02/09 10:57:54;;;;;;;44.47;25.02;;;8.70;99.90;;;;;;5059242;28;20198;-41
2024/02/09 11:00:20;;;;;;;39.15;25.15;;;8.80;99.90;;;;;;5060412;28;20232;-45
2024/02/09 11:02:45;;;;;;;30.15;20.13;;;8.80;99.90;;;;;;5060936;28;20972;-46
2024/02/09 11:05:15;;;;;;;31.40;20.35;;;8.90;99.90;;;;;;5060499;28;20681;-42
2024/02/09 11:07:46;;;;;;;29.27;18.48;;;9.00;99.90;;;;;;5060181;28;20205;-46
2024/02/09 11:10:16;;;;;;;29.77;16.85;;;9.10;99.90;;;;;;5058648;28;20267;-39
2024/02/09 11:12:43;;;;;;;25.00;14.48;;;9.20;99.90;;;;;;5060271;28;20554;-46
2024/02/09 11:15:15;;;;;;;24.50;14.25;;;9.30;99.90;;;;;;5058875;28;20205;-44
2024/02/09 11:17:46;;;;;;;19.02;11.70;;;9.40;99.90;;;;;;5060134;28;20262;-44
2024/02/09 11:20:16;;;;;;;18.38;10.95;;;9.50;99.90;;;;;;5061759;28;20190;-41
2024/02/09 11:22:48;;;;;;;19.85;10.23;;;9.60;99.90;;;;;;5063037;28;20209;-44
2024/02/09 11:25:22;;;;;;;16.00;8.82;;;9.70;99.90;;;;;;5063731;28;20199;-43
2024/02/09 11:27:51;;;;;;;16.13;8.43;;;9.80;99.90;;;;;;5094880;28;20201;-43
2024/02/09 11:30:21;;;;;;;15.20;8.60;;;9.90;99.90;;;;;;5062993;28;20898;-42
2024/02/09 11:32:50;;;;;;;17.02;8.68;;;10.00;99.90;;;;;;5064245;28;20247;-46
2024/02/09 11:35:17;;;;;;;15.35;7.90;;;10.20;99.90;;;;;;5063880;28;20638;-41
2024/02/09 11:37:44;;;;;;;15.93;8.05;;;10.30;99.90;;;;;;5063741;28;20250;-48
2024/02/09 11:40:12;;;;;;;14.05;7.50;;;10.40;99.90;;;;;;5064292;28;20194;-44
2024/02/09 11:42:38;;;;;;;13.07;7.32;;;10.60;99.90;;;;;;5063733;28;20203;-40
2024/02/09 11:45:06;;;;;;;11.52;7.75;;;10.70;99.90;;;;;;5058551;28;20195;-45
2024/02/09 11:47:32;;;;;;;11.20;7.43;;;10.80;99.90;;;;;;5063112;28;20225;-44
2024/02/09 11:49:58;;;;;;;16.55;10.65;;;11.00;99.90;;;;;;5063510;28;20218;-46
2024/02/09 11:52:23;;;;;;;12.43;7.35;;;11.20;99.90;;;;;;5063776;28;21234;-41
2024/02/09 11:54:49;;;;;;;12.25;7.35;;;11.30;99.90;;;;;;5063981;28;20186;-45
2024/02/09 11:57:15;;;;;;;10.70;6.50;;;11.50;99.90;;;;;;5063024;28;20285;-45
2024/02/09 11:59:42;;;;;;;11.25;6.78;;;11.60;99.90;;;;;;5044621;28;20186;-45
2024/02/09 12:02:07;;;;;;;12.50;7.03;;;11.70;99.90;;;;;;5077537;28;20190;-45
2024/02/09 12:04:33;;;;;;;12.45;6.68;;;11.80;99.90;;;;;;5063314;28;20186;-43
2024/02/09 12:06:59;;;;;;;14.30;6.68;;;11.90;99.90;;;;;;5062258;28;20651;-48
2024/02/09 12:09:31;;;;;;;12.20;6.53;;;12.00;99.90;;;;;;5063223;28;20195;-45
2024/02/09 12:11:57;;;;;;;12.30;6.43;;;12.10;99.90;;;;;;5061883;28;20289;-46
2024/02/09 12:14:23;;;;;;;10.48;6.43;;;12.10;99.90;;;;;;5063028;28;20287;-48
2024/02/09 12:16:50;;;;;;;12.07;6.88;;;12.20;99.90;;;;;;5063554;28;20365;-43
2024/02/09 12:19:17;;;;;;;19.50;10.32;;;12.20;99.90;;;;;;5063152;28;20225;-48
2024/02/09 12:21:44;;;;;;;11.30;6.10;;;12.30;99.90;;;;;;5063094;28;20178;-45
2024/02/09 12:24:11;;;;;;;22.52;10.68;;;12.30;99.90;;;;;;5060566;28;20560;-51
2024/02/09 12:26:37;;;;;;;13.13;6.50;;;12.40;99.90;;;;;;5061799;28;20282;-49
2024/02/09 12:29:13;;;;;;;13.30;6.03;;;12.40;99.90;;;;;;5061028;28;20195;-47
2024/02/09 12:31:46;;;;;;;12.63;6.55;;;12.40;99.90;;;;;;5062244;28;20186;-41
2024/02/09 12:34:13;;;;;;;12.13;5.45;;;12.40;99.90;;;;;;5062972;28;20186;-44
2024/02/09 12:36:41;;;;;;;12.85;5.25;;;12.40;99.90;;;;;;5061576;28;20226;-47
2024/02/09 12:39:12;;;;;;;9.00;5.38;;;12.50;99.90;;;;;;5060748;28;21155;-46
2024/02/09 12:41:40;;;;;;;12.48;5.63;;;12.50;99.90;;;;;;5061307;28;20246;-45
2024/02/09 12:44:07;;;;;;;8.68;5.10;;;12.50;99.90;;;;;;5060019;28;20218;-49
2024/02/09 12:46:32;;;;;;;15.38;5.22;;;12.60;99.90;;;;;;5062102;28;20187;-47
2024/02/09 12:49:00;;;;;;;12.68;5.70;;;12.70;99.90;;;;;;5061836;28;20202;-48
2024/02/09 12:51:26;;;;;;;11.65;5.70;;;12.80;99.90;;;;;;5061176;28;20199;-46
2024/02/09 12:53:52;;;;;;;15.73;5.45;;;12.80;99.90;;;;;;5061020;28;20259;-50
2024/02/09 12:56:18;;;;;;;13.10;6.50;;;12.80;99.90;;;;;;5061587;28;20281;-45
2024/02/09 12:58:44;;;;;;;12.63;5.70;;;12.80;99.90;;;;;;5061165;28;20202;-53
2024/02/09 13:01:11;;;;;;;11.63;5.25;;;12.90;99.90;;;;;;5059390;28;20260;-44
2024/02/09 13:03:40;;;;;;;9.93;5.32;;;12.90;99.90;;;;;;5058053;28;20215;-42
2024/02/09 13:06:06;;;;;;;14.88;5.22;;;12.90;99.90;;;;;;5060531;28;20187;-43
2024/02/09 13:08:32;;;;;;;10.60;6.10;;;12.90;99.90;;;;;;5060831;28;20184;-44
2024/02/09 13:10:59;;;;;;;12.77;5.82;;;12.90;99.90;;;;;;5060367;28;20610;-47
2024/02/09 13:13:25;;;;;;;9.93;5.35;;;12.90;99.90;;;;;;5060807;28;20194;-39
2024/02/09 13:15:51;;;;;;;9.70;5.28;;;12.80;99.90;;;;;;5059688;28;20194;-49
2024/02/09 13:18:17;;;;;;;8.75;5.20;;;12.80;99.90;;;;;;5060017;28;20196;-43
2024/02/09 13:20:45;;;;;;;10.13;5.80;;;12.70;99.90;;;;;;5075857;28;20217;-47
2024/02/09 13:23:12;;;;;;;12.43;6.53;;;12.80;99.90;;;;;;5059283;28;20305;-52
2024/02/09 13:25:40;;;;;;;11.63;5.95;;;12.70;99.90;;;;;;5060538;28;20586;-45
2024/02/09 13:28:07;;;;;;;9.60;5.70;;;12.70;99.90;;;;;;5059104;28;20408;-44
2024/02/09 13:30:34;;;;;;;12.70;6.32;;;12.70;99.90;;;;;;5060225;28;20552;-43
2024/02/09 13:33:00;;;;;;;8.88;5.22;;;12.70;99.90;;;;;;5060788;28;20190;-48
2024/02/09 13:35:26;;;;;;;12.07;5.65;;;12.70;99.90;;;;;;5060832;28;20270;-45
2024/02/09 13:37:53;;;;;;;20.10;12.25;;;12.60;99.90;;;;;;5021028;28;1115650;-48
2024/02/09 13:40:19;;;;;;;12.75;6.30;;;12.60;99.90;;;;;;5061144;28;20212;-43
2024/02/09 13:42:52;;;;;;;13.98;6.85;;;12.60;99.90;;;;;;5059525;28;20218;-50
2024/02/09 13:45:21;;;;;;;11.68;6.28;;;12.60;99.90;;;;;;5061200;28;20281;-46
2024/02/09 13:47:47;;;;;;;14.00;6.18;;;12.60;99.90;;;;;;5060751;28;20454;-42
2024/02/09 13:50:14;;;;;;;12.75;5.22;;;12.60;99.90;;;;;;5061284;28;20181;-51
2024/02/09 13:52:43;;;;;;;13.48;5.50;;;12.60;99.90;;;;;;5059218;28;20532;-52
2024/02/09 13:55:13;;;;;;;10.20;5.35;;;12.70;99.90;;;;;;5060922;28;20198;-45
2024/02/09 13:57:43;;;;;;;14.68;5.50;;;12.70;99.90;;;;;;5061355;28;20273;-48
2024/02/09 14:00:13;;;;;;;10.32;5.50;;;12.70;99.90;;;;;;5061169;28;20244;-49
2024/02/09 14:02:39;;;;;;;8.90;5.03;;;12.80;99.90;;;;;;5060550;28;20210;-50
2024/02/09 14:05:05;;;;;;;9.55;5.07;;;12.90;99.90;;;;;;5059914;28;20182;-48
2024/02/09 14:07:31;;;;;;;11.85;4.85;;;12.80;99.90;;;;;;5061084;28;20214;-48
2024/02/09 14:09:58;;;;;;;11.02;4.93;;;12.90;99.90;;;;;;5060986;28;20283;-52
2024/02/09 14:12:24;;;;;;;13.98;5.25;;;12.90;99.90;;;;;;5060675;28;20218;-46
2024/02/09 14:14:50;;;;;;;9.68;5.30;;;12.90;99.90;;;;;;5060537;28;20195;-47
2024/02/09 14:17:16;;;;;;;11.93;5.00;;;12.90;99.90;;;;;;5059812;28;20280;-48
2024/02/09 14:19:45;;;;;;;16.40;5.68;;;12.90;99.90;;;;;;5061223;28;20526;-47
2024/02/09 14:22:12;;;;;;;11.38;5.40;;;12.80;99.90;;;;;;5059296;28;20193;-45
2024/02/09 14:24:40;;;;;;;13.20;5.85;;;12.80;99.90;;;;;;5061005;28;20186;-46
2024/02/09 14:27:06;;;;;;;10.02;5.22;;;12.80;99.90;;;;;;5060391;28;20701;-48
2024/02/09 14:29:33;;;;;;;12.70;5.57;;;12.80;99.90;;;;;;5059741;28;20186;-44
2024/02/09 14:32:00;;;;;;;10.82;5.22;;;12.80;99.90;;;;;;5059534;28;20198;-47
2024/02/09 14:34:27;;;;;;;15.65;6.47;;;12.70;99.90;;;;;;5059218;28;20199;-44